createdAt,value
2022-10-31T00:01:24.066Z,71.80
2022-10-31T00:03:52.260Z,71.90
2022-10-31T00:06:20.348Z,71.90
2022-10-31T00:08:48.989Z,71.80
2022-10-31T00:11:18.478Z,71.90
2022-10-31T00:13:46.679Z,71.80
2022-10-31T00:16:17.709Z,71.90
2022-10-31T00:18:46.001Z,71.90
2022-10-31T00:21:14.129Z,72.00
2022-10-31T00:23:42.278Z,72.20
2022-10-31T00:26:10.397Z,72.20
2022-10-31T00:28:39.980Z,72.20
2022-10-31T00:31:09.896Z,72.40
2022-10-31T00:33:39.478Z,72.40
2022-10-31T00:36:09.467Z,72.50
2022-10-31T00:38:37.619Z,72.50
2022-10-31T00:41:06.049Z,72.50
2022-10-31T00:43:34.244Z,72.60
2022-10-31T00:46:03.781Z,72.60
2022-10-31T00:48:32.266Z,72.70
2022-10-31T00:51:00.589Z,72.90
2022-10-31T00:53:28.742Z,72.90
2022-10-31T00:55:56.867Z,72.90
2022-10-31T00:58:24.971Z,72.80
2022-10-31T01:00:56.358Z,73.00
2022-10-31T01:03:28.270Z,73.00
2022-10-31T01:06:01.512Z,73.10
2022-10-31T01:08:30.166Z,73.20
2022-10-31T01:11:07.604Z,73.20
2022-10-31T01:13:36.216Z,73.20
2022-10-31T01:16:06.305Z,73.40
2022-10-31T01:18:36.572Z,73.40
2022-10-31T01:21:07.050Z,73.30
2022-10-31T01:23:36.059Z,73.50
2022-10-31T01:26:09.863Z,73.50
2022-10-31T01:28:39.745Z,73.60
2022-10-31T01:31:09.910Z,73.50
2022-10-31T01:33:39.741Z,73.50
2022-10-31T01:36:16.789Z,73.50
2022-10-31T01:38:45.060Z,73.70
2022-10-31T01:41:14.704Z,73.80
2022-10-31T01:43:51.824Z,73.80
2022-10-31T01:46:24.656Z,73.80
2022-10-31T01:48:56.281Z,73.80
2022-10-31T01:51:28.105Z,73.80
2022-10-31T01:54:00.353Z,73.80
2022-10-31T01:56:29.008Z,73.90
2022-10-31T01:58:58.551Z,73.90
2022-10-31T02:01:27.260Z,73.90
2022-10-31T02:03:57.816Z,74.00
2022-10-31T02:06:35.685Z,73.90
2022-10-31T02:09:05.979Z,73.90
2022-10-31T02:11:37.120Z,74.00
2022-10-31T02:14:05.862Z,73.90
2022-10-31T02:16:34.050Z,73.90
2022-10-31T02:19:04.639Z,74.00
2022-10-31T02:21:41.756Z,74.10
2022-10-31T02:24:43.028Z,74.20
2022-10-31T02:27:23.639Z,74.20
2022-10-31T02:30:12.151Z,74.10
2022-10-31T02:33:03.117Z,74.10
2022-10-31T02:35:51.559Z,74.10
2022-10-31T02:38:30.780Z,74.10
2022-10-31T02:41:06.438Z,74.20
2022-10-31T02:43:42.406Z,74.20
2022-10-31T02:46:16.556Z,74.30
2022-10-31T02:48:47.773Z,74.20
2022-10-31T02:51:17.536Z,74.30
2022-10-31T02:53:45.673Z,74.40
2022-10-31T02:56:16.114Z,74.30
2022-10-31T02:58:48.970Z,74.30
2022-10-31T03:01:49.668Z,74.30
2022-10-31T03:04:51.194Z,74.50
2022-10-31T03:07:28.096Z,74.50
2022-10-31T03:10:04.603Z,74.50
2022-10-31T03:12:43.124Z,74.70
2022-10-31T03:15:21.622Z,74.60
2022-10-31T03:17:55.895Z,74.50
2022-10-31T03:20:29.919Z,74.60
2022-10-31T03:23:00.537Z,74.60
2022-10-31T03:25:29.315Z,74.70
2022-10-31T03:27:59.114Z,74.70
2022-10-31T03:30:27.641Z,74.70
2022-10-31T03:32:59.089Z,74.80
2022-10-31T03:35:29.711Z,74.90
2022-10-31T03:38:05.406Z,74.80
2022-10-31T03:40:38.652Z,74.90
2022-10-31T03:43:11.087Z,74.90
2022-10-31T03:45:45.229Z,74.90
2022-10-31T03:48:14.883Z,74.90
2022-10-31T03:50:51.981Z,74.90
2022-10-31T03:53:27.032Z,74.90
2022-10-31T03:55:59.882Z,75.00
2022-10-31T03:58:32.350Z,75.00
2022-10-31T04:01:03.707Z,75.00
2022-10-31T04:03:35.201Z,75.00
2022-10-31T04:06:07.713Z,75.00
2022-10-31T04:08:44.139Z,75.10
2022-10-31T04:11:15.711Z,75.20
2022-10-31T04:13:45.229Z,75.30
2022-10-31T04:16:17.123Z,75.20
2022-10-31T04:18:45.792Z,75.20
2022-10-31T04:21:13.921Z,75.20
2022-10-31T04:23:43.478Z,75.30
2022-10-31T04:26:13.493Z,75.30
2022-10-31T04:28:41.635Z,75.30
2022-10-31T04:31:12.669Z,75.30
2022-10-31T04:33:40.906Z,75.40
2022-10-31T04:36:09.434Z,75.40
2022-10-31T04:38:37.583Z,75.50
2022-10-31T04:41:07.336Z,75.60
2022-10-31T04:43:35.454Z,75.50
2022-10-31T04:46:03.913Z,75.60
2022-10-31T04:48:32.217Z,75.80
2022-10-31T04:51:03.418Z,75.70
2022-10-31T04:53:31.644Z,75.80
2022-10-31T04:56:00.942Z,75.80
2022-10-31T04:58:30.793Z,75.80
2022-10-31T05:00:59.225Z,75.80
2022-10-31T05:03:27.518Z,75.80
2022-10-31T05:05:55.610Z,75.80
2022-10-31T05:08:23.830Z,75.90
2022-10-31T05:10:52.963Z,76.00
2022-10-31T05:15:51.871Z,76.00
2022-10-31T05:18:20.009Z,76.00
2022-10-31T05:20:48.144Z,76.10
2022-10-31T05:23:16.657Z,76.10
2022-10-31T05:25:44.867Z,76.20
2022-10-31T05:28:13.011Z,76.20
2022-10-31T05:30:41.167Z,76.30
2022-10-31T05:33:10.681Z,76.40
2022-10-31T05:35:38.795Z,76.40
2022-10-31T05:38:06.928Z,76.50
2022-10-31T05:40:35.020Z,76.50
2022-10-31T05:43:03.533Z,76.60
2022-10-31T05:45:32.081Z,76.60
2022-10-31T05:48:02.330Z,76.80
2022-10-31T05:50:33.470Z,76.80
2022-10-31T05:53:02.946Z,76.70
2022-10-31T05:55:31.926Z,76.80
2022-10-31T05:58:00.447Z,76.90
2022-10-31T06:00:29.694Z,76.90
2022-10-31T06:03:02.074Z,76.80
2022-10-31T06:05:32.629Z,76.80
2022-10-31T06:08:01.555Z,77.00
2022-10-31T06:10:30.258Z,76.90
2022-10-31T06:12:58.614Z,76.80
2022-10-31T06:15:26.843Z,76.90
2022-10-31T06:18:03.465Z,76.80
2022-10-31T06:20:34.045Z,76.80
2022-10-31T06:23:03.160Z,76.80
2022-10-31T06:25:31.617Z,76.80
2022-10-31T06:27:59.728Z,76.80
2022-10-31T06:30:28.172Z,76.80
2022-10-31T06:32:56.334Z,76.80
2022-10-31T06:35:24.627Z,76.80
2022-10-31T06:37:57.909Z,76.80
2022-10-31T06:40:26.240Z,76.70
2022-10-31T06:43:01.265Z,76.80
2022-10-31T06:45:29.736Z,76.80
2022-10-31T06:50:47.054Z,76.80
2022-10-31T06:53:16.888Z,76.70
2022-10-31T06:55:45.415Z,76.70
2022-10-31T06:58:13.841Z,76.60
2022-10-31T07:00:42.022Z,76.60
2022-10-31T07:03:13.573Z,76.60
2022-10-31T07:05:47.486Z,76.50
2022-10-31T07:08:17.165Z,76.50
2022-10-31T07:10:45.633Z,76.50
2022-10-31T07:13:15.535Z,76.40
2022-10-31T07:15:44.971Z,76.30
2022-10-31T07:18:14.429Z,76.30
2022-10-31T07:20:42.524Z,76.30
2022-10-31T07:23:11.853Z,76.30
2022-10-31T07:25:41.503Z,76.20
2022-10-31T07:28:10.152Z,76.20
2022-10-31T07:30:40.946Z,76.30
2022-10-31T07:33:09.131Z,76.20
2022-10-31T07:35:37.347Z,76.10
2022-10-31T07:38:13.361Z,76.00
2022-10-31T07:40:43.771Z,76.00
2022-10-31T07:43:14.524Z,75.90
2022-10-31T07:45:42.927Z,75.80
2022-10-31T07:48:11.135Z,75.70
2022-10-31T07:50:40.292Z,75.50
2022-10-31T07:53:10.056Z,75.40
2022-10-31T07:55:38.840Z,75.20
2022-10-31T07:58:09.937Z,75.00
2022-10-31T08:00:41.015Z,74.80
2022-10-31T08:03:10.903Z,74.60
2022-10-31T08:05:39.498Z,74.50
2022-10-31T08:08:12.122Z,74.30
2022-10-31T08:10:43.594Z,74.20
2022-10-31T08:13:15.165Z,74.10
2022-10-31T08:15:43.520Z,74.00
2022-10-31T08:18:14.852Z,73.90
2022-10-31T08:20:43.527Z,73.70
2022-10-31T08:23:13.091Z,73.60
2022-10-31T08:25:42.834Z,73.40
2022-10-31T08:28:13.469Z,73.30
2022-10-31T08:30:42.466Z,73.10
2022-10-31T08:33:12.996Z,72.90
2022-10-31T08:35:41.623Z,72.50
2022-10-31T08:38:11.934Z,72.20
2022-10-31T08:40:40.761Z,71.70
2022-10-31T08:43:13.535Z,71.50
2022-10-31T08:45:42.089Z,71.20
2022-10-31T08:48:13.296Z,70.90
2022-10-31T08:50:42.125Z,70.60
2022-10-31T08:53:14.084Z,70.30
2022-10-31T08:55:43.170Z,70.10
2022-10-31T08:58:14.882Z,69.90
2022-10-31T09:00:43.400Z,69.60
2022-10-31T09:03:14.549Z,69.40
2022-10-31T09:05:42.895Z,69.30
2022-10-31T09:08:16.007Z,69.10
2022-10-31T09:10:45.868Z,68.80
2022-10-31T09:13:17.447Z,68.50
2022-10-31T09:15:46.899Z,68.40
2022-10-31T09:18:19.104Z,68.30
2022-10-31T09:20:48.575Z,68.10
2022-10-31T09:23:18.554Z,67.90
2022-10-31T09:25:50.485Z,67.90
2022-10-31T09:28:23.840Z,67.60
2022-10-31T09:30:53.624Z,67.30
2022-10-31T09:33:22.465Z,67.10
2022-10-31T09:35:51.028Z,66.90
2022-10-31T09:38:21.233Z,66.60
2022-10-31T09:40:54.389Z,66.50
2022-10-31T09:43:32.116Z,66.30
2022-10-31T09:46:06.473Z,66.20
2022-10-31T09:48:52.691Z,65.90
2022-10-31T09:51:25.486Z,65.70
2022-10-31T09:54:00.431Z,65.70
2022-10-31T09:56:30.212Z,65.60
2022-10-31T09:59:01.878Z,65.40
2022-10-31T10:01:46.869Z,65.10
2022-10-31T10:04:39.379Z,65.00
2022-10-31T10:07:16.342Z,64.70
2022-10-31T10:09:47.571Z,64.80
2022-10-31T10:12:20.758Z,64.70
2022-10-31T10:15:04.364Z,64.60
2022-10-31T10:17:40.123Z,64.50
2022-10-31T10:20:25.472Z,63.80
2022-10-31T10:23:01.281Z,63.20
2022-10-31T10:25:35.606Z,63.20
2022-10-31T10:28:14.726Z,61.90
2022-10-31T10:30:47.674Z,61.60
2022-10-31T10:33:20.329Z,62.10
2022-10-31T10:35:52.589Z,62.40
2022-10-31T10:38:27.654Z,62.60
2022-10-31T10:40:56.149Z,62.90
2022-10-31T10:43:27.748Z,63.20
2022-10-31T10:46:24.718Z,63.60
2022-10-31T10:49:01.039Z,64.00
2022-10-31T10:51:58.151Z,64.30
2022-10-31T10:54:56.808Z,64.50
2022-10-31T10:57:34.688Z,65.00
2022-10-31T11:00:13.379Z,65.40
2022-10-31T11:02:46.449Z,65.60
2022-10-31T11:05:25.338Z,65.80
2022-10-31T11:07:53.536Z,66.00
2022-10-31T11:10:21.999Z,66.20
2022-10-31T11:13:04.283Z,66.10
2022-10-31T11:15:35.872Z,66.10
2022-10-31T11:18:06.144Z,65.60
2022-10-31T11:20:36.868Z,65.60
2022-10-31T11:23:16.858Z,65.60
2022-10-31T11:25:52.615Z,65.60
2022-10-31T11:28:20.793Z,65.60
2022-10-31T11:30:51.846Z,65.50
2022-10-31T11:33:26.713Z,65.30
2022-10-31T11:35:58.031Z,64.80
2022-10-31T11:38:35.180Z,64.80
2022-10-31T11:41:11.532Z,64.50
2022-10-31T11:43:40.894Z,64.00
2022-10-31T11:46:13.003Z,63.40
2022-10-31T11:48:48.701Z,62.90
2022-10-31T11:51:23.241Z,62.60
2022-10-31T11:53:58.209Z,62.50
2022-10-31T11:56:30.198Z,62.10
2022-10-31T11:58:59.056Z,62.30
2022-10-31T12:01:29.512Z,62.20
2022-10-31T12:04:08.346Z,61.60
2022-10-31T12:06:38.261Z,61.30
2022-10-31T12:09:23.250Z,60.90
2022-10-31T12:12:08.745Z,60.50
2022-10-31T12:14:44.133Z,60.70
2022-10-31T12:17:18.000Z,60.40
2022-10-31T12:19:56.354Z,59.90
2022-10-31T12:22:31.846Z,59.70
2022-10-31T12:25:21.715Z,59.60
2022-10-31T12:28:08.876Z,59.80
2022-10-31T12:30:49.332Z,59.80
2022-10-31T12:33:36.634Z,59.20
2022-10-31T12:36:23.364Z,59.30
2022-10-31T12:39:15.167Z,59.00
2022-10-31T12:41:49.604Z,58.50
2022-10-31T12:44:36.803Z,58.20
2022-10-31T12:47:19.432Z,57.80
2022-10-31T12:49:56.486Z,57.50
2022-10-31T12:52:43.355Z,57.80
2022-10-31T12:55:39.203Z,58.10
2022-10-31T12:58:12.884Z,57.70
2022-10-31T13:00:48.469Z,57.40
2022-10-31T13:03:27.349Z,57.40
2022-10-31T13:06:00.244Z,56.70
2022-10-31T13:08:38.538Z,56.70
2022-10-31T13:11:11.950Z,56.20
2022-10-31T13:13:43.572Z,55.30
2022-10-31T13:16:17.220Z,54.80
2022-10-31T13:18:49.976Z,54.30
2022-10-31T13:21:23.465Z,54.00
2022-10-31T13:23:53.946Z,53.80
2022-10-31T13:26:27.705Z,54.30
2022-10-31T13:29:02.021Z,54.60
2022-10-31T13:31:30.382Z,55.10
2022-10-31T13:34:01.604Z,55.30
2022-10-31T13:36:35.894Z,55.30
2022-10-31T13:39:19.438Z,55.50
2022-10-31T13:41:50.800Z,55.90
2022-10-31T13:44:24.981Z,56.50
2022-10-31T13:46:53.789Z,57.00
2022-10-31T13:49:41.557Z,57.20
2022-10-31T13:52:26.546Z,57.30
2022-10-31T13:54:58.961Z,57.70
2022-10-31T13:57:34.710Z,57.70
2022-10-31T14:00:05.809Z,58.00
2022-10-31T14:02:37.172Z,58.30
2022-10-31T14:05:11.181Z,58.30
2022-10-31T14:07:46.162Z,57.60
2022-10-31T14:10:27.774Z,57.80
2022-10-31T14:13:04.698Z,58.20
2022-10-31T14:15:33.635Z,58.20
2022-10-31T14:18:04.263Z,58.10
2022-10-31T14:20:40.185Z,57.80
2022-10-31T14:23:34.854Z,58.10
2022-10-31T14:26:32.004Z,58.40
2022-10-31T14:29:02.167Z,58.40
2022-10-31T14:31:35.904Z,58.50
2022-10-31T14:34:08.600Z,58.80
2022-10-31T14:36:52.411Z,59.20
2022-10-31T14:39:26.422Z,59.40
2022-10-31T14:42:16.475Z,59.80
2022-10-31T14:45:03.111Z,59.90
2022-10-31T14:47:41.498Z,60.30
2022-10-31T14:50:25.260Z,60.30
2022-10-31T14:52:57.055Z,60.50
2022-10-31T14:55:26.688Z,60.70
2022-10-31T14:58:00.196Z,61.10
2022-10-31T15:00:31.298Z,61.40
2022-10-31T15:03:11.814Z,61.50
2022-10-31T15:05:45.101Z,61.50
2022-10-31T15:08:28.042Z,61.70
2022-10-31T15:10:56.160Z,61.70
2022-10-31T15:13:25.774Z,62.00
2022-10-31T15:15:56.870Z,62.30
2022-10-31T15:18:27.842Z,62.70
2022-10-31T15:20:58.079Z,63.10
2022-10-31T15:23:29.076Z,63.30
2022-10-31T15:26:04.131Z,63.30
2022-10-31T15:28:33.909Z,63.70
2022-10-31T15:31:03.516Z,64.00
2022-10-31T15:33:38.237Z,64.30
2022-10-31T15:36:08.732Z,64.60
2022-10-31T15:38:36.995Z,65.00
2022-10-31T15:41:08.345Z,65.40
2022-10-31T15:43:41.000Z,65.50
2022-10-31T15:46:11.595Z,65.80
2022-10-31T15:48:41.624Z,66.10
2022-10-31T15:51:09.842Z,66.30
2022-10-31T15:53:43.898Z,66.70
2022-10-31T15:56:21.134Z,66.90
2022-10-31T15:58:54.329Z,67.10
2022-10-31T16:01:25.601Z,67.40
2022-10-31T16:04:06.095Z,67.60
2022-10-31T16:06:36.138Z,67.80
2022-10-31T16:09:05.434Z,68.00
2022-10-31T16:11:37.629Z,68.20
2022-10-31T16:14:09.685Z,68.40
2022-10-31T16:16:44.266Z,68.60
2022-10-31T16:19:20.457Z,68.80
2022-10-31T16:21:51.248Z,69.00
2022-10-31T16:24:24.653Z,69.20
2022-10-31T16:26:55.012Z,69.30
2022-10-31T16:29:31.433Z,69.50
2022-10-31T16:31:59.552Z,69.70
2022-10-31T16:34:27.746Z,69.70
2022-10-31T16:36:56.005Z,70.00
2022-10-31T16:39:24.292Z,70.20
2022-10-31T16:41:54.733Z,70.30
2022-10-31T16:44:27.378Z,70.50
2022-10-31T16:47:11.480Z,70.70
2022-10-31T16:49:39.706Z,71.10
2022-10-31T16:52:07.943Z,71.20
2022-10-31T16:54:36.332Z,71.40
2022-10-31T16:57:06.807Z,71.60
2022-10-31T16:59:35.987Z,71.90
2022-10-31T17:02:06.458Z,72.10
2022-10-31T17:04:37.673Z,72.30
2022-10-31T17:07:05.838Z,72.50
2022-10-31T17:09:33.952Z,72.60
2022-10-31T17:12:02.184Z,72.70
2022-10-31T17:14:30.579Z,72.80
2022-10-31T17:16:58.738Z,72.90
2022-10-31T17:19:28.241Z,73.00
2022-10-31T17:21:56.374Z,73.10
2022-10-31T17:24:24.512Z,73.40
2022-10-31T17:26:52.663Z,73.60
2022-10-31T17:29:20.887Z,73.70
2022-10-31T17:31:49.393Z,73.90
2022-10-31T17:34:19.168Z,74.00
2022-10-31T17:36:53.157Z,74.00
2022-10-31T17:39:21.459Z,74.20
2022-10-31T17:41:52.407Z,74.50
2022-10-31T17:44:21.134Z,74.60
2022-10-31T17:46:49.237Z,74.70
2022-10-31T17:49:17.376Z,74.80
2022-10-31T17:51:45.540Z,75.00
2022-10-31T17:54:18.479Z,75.10
2022-10-31T17:56:46.588Z,75.20
2022-10-31T17:59:14.764Z,75.50
2022-10-31T18:01:43.021Z,75.60
2022-10-31T18:04:11.297Z,75.60
2022-10-31T18:06:39.432Z,75.70
2022-10-31T18:09:08.047Z,75.60
2022-10-31T18:11:37.647Z,75.60
2022-10-31T18:14:05.866Z,75.80
2022-10-31T18:16:34.143Z,75.80
2022-10-31T18:19:02.265Z,75.80
2022-10-31T18:21:30.771Z,75.80
2022-10-31T18:24:00.456Z,76.30
2022-10-31T18:26:29.578Z,76.20
2022-10-31T18:28:59.444Z,76.30
2022-10-31T18:31:27.767Z,76.40
2022-10-31T18:33:56.802Z,76.40
2022-10-31T18:36:25.739Z,76.30
2022-10-31T18:38:54.016Z,76.30
2022-10-31T18:41:22.217Z,76.30
2022-10-31T18:43:50.368Z,76.30
2022-10-31T18:46:19.841Z,76.30
2022-10-31T18:48:48.007Z,76.40
2022-10-31T18:51:18.522Z,76.40
2022-10-31T18:53:52.918Z,76.70
2022-10-31T18:56:21.650Z,76.70
2022-10-31T18:58:50.273Z,76.80
2022-10-31T19:01:21.507Z,76.80
2022-10-31T19:03:55.220Z,76.80
2022-10-31T19:06:23.517Z,76.90
2022-10-31T19:08:51.730Z,76.90
2022-10-31T19:11:19.811Z,76.90
2022-10-31T19:13:47.995Z,77.00
2022-10-31T19:16:17.898Z,77.10
2022-10-31T19:18:47.406Z,77.00
2022-10-31T19:21:17.018Z,77.00
2022-10-31T19:23:46.187Z,77.00
2022-10-31T19:26:14.617Z,77.10
2022-10-31T19:28:43.405Z,77.10
2022-10-31T19:31:11.863Z,77.10
2022-10-31T19:33:40.201Z,77.10
2022-10-31T19:36:11.951Z,77.20
2022-10-31T19:38:41.661Z,77.10
2022-10-31T19:41:12.602Z,77.10
2022-10-31T19:43:40.899Z,77.10
2022-10-31T19:46:17.450Z,77.10
2022-10-31T19:48:57.264Z,77.00
2022-10-31T19:51:26.788Z,77.20
2022-10-31T19:53:55.861Z,77.20
2022-10-31T19:56:25.358Z,77.20
2022-10-31T19:58:53.831Z,77.30
2022-10-31T20:01:23.516Z,77.30
2022-10-31T20:03:52.120Z,77.50
2022-10-31T20:06:26.882Z,77.50
2022-10-31T20:08:57.197Z,77.50
2022-10-31T20:11:27.126Z,77.60
2022-10-31T20:13:56.301Z,77.70
2022-10-31T20:16:24.701Z,77.70
2022-10-31T20:18:52.986Z,77.70
2022-10-31T20:21:22.868Z,77.80
2022-10-31T20:23:55.585Z,77.90
2022-10-31T20:26:25.137Z,77.90
2022-10-31T20:28:53.312Z,78.00
2022-10-31T20:31:23.227Z,77.90
2022-10-31T20:33:52.550Z,77.90
2022-10-31T20:36:21.195Z,77.90
2022-10-31T20:38:49.470Z,78.10
2022-10-31T20:41:18.321Z,78.10
2022-10-31T20:43:48.205Z,78.20
2022-10-31T20:46:18.567Z,78.30
2022-10-31T20:48:47.414Z,78.30
2022-10-31T20:51:19.491Z,78.20
2022-10-31T20:53:47.715Z,78.20
2022-10-31T20:56:18.667Z,78.10
2022-10-31T20:58:48.815Z,78.00
2022-10-31T21:01:18.707Z,78.00
2022-10-31T21:03:47.259Z,78.00
2022-10-31T21:06:16.619Z,77.90
2022-10-31T21:08:45.392Z,78.00
2022-10-31T21:11:16.168Z,78.00
2022-10-31T21:13:45.933Z,78.00
2022-10-31T21:16:17.159Z,78.00
2022-10-31T21:18:46.562Z,78.10
2022-10-31T21:21:17.735Z,78.10
2022-10-31T21:23:45.891Z,78.10
2022-10-31T21:26:16.881Z,78.20
2022-10-31T21:28:45.097Z,78.30
2022-10-31T21:31:16.588Z,78.40
2022-10-31T21:33:45.893Z,78.50
2022-10-31T21:36:14.513Z,78.50
2022-10-31T21:38:43.413Z,78.40
2022-10-31T21:41:13.495Z,78.40
2022-10-31T21:43:43.819Z,78.40
2022-10-31T21:46:15.771Z,78.40
2022-10-31T21:48:45.986Z,78.40
2022-10-31T21:51:16.388Z,78.30
2022-10-31T21:54:02.028Z,78.30
2022-10-31T21:56:30.780Z,78.40
2022-10-31T21:58:59.295Z,78.40
2022-10-31T22:01:29.390Z,78.30
2022-10-31T22:03:59.964Z,78.50
2022-10-31T22:06:30.156Z,78.30
2022-10-31T22:09:00.824Z,78.40
2022-10-31T22:11:29.299Z,78.40
2022-10-31T22:13:59.777Z,78.50
2022-10-31T22:16:30.055Z,78.30
2022-10-31T22:19:04.991Z,78.40
2022-10-31T22:21:37.736Z,78.30
2022-10-31T22:24:07.707Z,78.50
2022-10-31T22:26:36.689Z,78.40
2022-10-31T22:29:06.399Z,78.40
2022-10-31T22:31:35.471Z,78.50
2022-10-31T22:34:05.030Z,78.40
2022-10-31T22:36:33.480Z,78.40
2022-10-31T22:39:01.909Z,78.40
2022-10-31T22:41:33.096Z,78.30
2022-10-31T22:44:02.938Z,78.30
2022-10-31T22:46:32.980Z,78.30
2022-10-31T22:49:02.197Z,78.30
2022-10-31T22:51:33.896Z,78.20
2022-10-31T22:54:02.261Z,78.10
2022-10-31T22:56:33.174Z,78.20
2022-10-31T22:59:02.053Z,78.10
2022-10-31T23:01:33.109Z,78.10
2022-10-31T23:04:02.086Z,78.30
2022-10-31T23:06:33.794Z,78.30
2022-10-31T23:09:03.381Z,78.30
2022-10-31T23:11:34.981Z,78.40
2022-10-31T23:14:10.251Z,78.40
2022-10-31T23:16:41.896Z,78.50
2022-10-31T23:19:10.908Z,78.40
2022-10-31T23:21:56.147Z,78.60
2022-10-31T23:24:27.288Z,78.70
2022-10-31T23:27:11.091Z,78.60
2022-10-31T23:29:46.347Z,78.70
2022-10-31T23:32:18.218Z,78.70
2022-10-31T23:34:47.356Z,78.70
2022-10-31T23:37:17.938Z,78.70
2022-10-31T23:39:46.148Z,78.70
2022-10-31T23:42:15.578Z,78.70
2022-10-31T23:44:44.042Z,78.70
2022-10-31T23:47:13.016Z,78.70
2022-10-31T23:49:41.264Z,78.80
2022-10-31T23:52:09.563Z,78.70
2022-10-31T23:54:39.436Z,78.80
2022-10-31T23:57:07.912Z,78.70
2022-10-31T23:59:36.829Z,78.70
